sensor_id;sensor_type;location;lat;lon;timestamp;P1;durP1;ratioP1;P2;durP2;ratioP2
50851;SDS011;43953;45.508;-122.806;2022-11-20T00:00:09;9.02;;;6.13;;
50851;SDS011;43953;45.508;-122.806;2022-11-20T00:00:41;9.23;;;6.30;;
50851;SDS011;43953;45.508;-122.806;2022-11-20T00:01:14;8.27;;;6.10;;
50851;SDS011;43953;45.508;-122.806;2022-11-20T00:01:47;8.43;;;6.20;;
50851;SDS011;43953;45.508;-122.806;2022-11-20T00:02:19;7.57;;;6.03;;
50851;SDS011;43953;45.508;-122.806;2022-11-20T00:02:51;7.50;;;5.85;;
50851;SDS011;43953;45.508;-122.806;2022-11-20T00:03:23;8.02;;;5.88;;
50851;SDS011;43953;45.508;-122.806;2022-11-20T00:03:55;7.80;;;6.20;;
50851;SDS011;43953;45.508;-122.806;2022-11-20T00:04:28;7.72;;;6.10;;
50851;SDS011;43953;45.508;-122.806;2022-11-20T00:05:00;8.38;;;6.30;;
50851;SDS011;43953;45.508;-122.806;2022-11-20T00:05:32;7.82;;;5.72;;
50851;SDS011;43953;45.508;-122.806;2022-11-20T00:06:05;7.25;;;5.85;;
50851;SDS011;43953;45.508;-122.806;2022-11-20T00:06:39;8.38;;;5.88;;
50851;SDS011;43953;45.508;-122.806;2022-11-20T00:07:11;8.00;;;5.60;;
50851;SDS011;43953;45.508;-122.806;2022-11-20T00:07:43;7.88;;;5.93;;
50851;SDS011;43953;45.508;-122.806;2022-11-20T00:08:15;8.35;;;6.35;;
50851;SDS011;43953;45.508;-122.806;2022-11-20T00:08:46;7.03;;;5.53;;
50851;SDS011;43953;45.508;-122.806;2022-11-20T00:09:19;9.10;;;6.18;;
50851;SDS011;43953;45.508;-122.806;2022-11-20T00:09:51;8.98;;;6.47;;
50851;SDS011;43953;45.508;-122.806;2022-11-20T00:10:23;9.82;;;6.45;;
50851;SDS011;43953;45.508;-122.806;2022-11-20T00:10:54;8.52;;;5.78;;
50851;SDS011;43953;45.508;-122.806;2022-11-20T00:11:27;8.23;;;6.10;;
50851;SDS011;43953;45.508;-122.806;2022-11-20T00:12:00;8.65;;;6.30;;
50851;SDS011;43953;45.508;-122.806;2022-11-20T00:12:32;7.75;;;6.22;;
50851;SDS011;43953;45.508;-122.806;2022-11-20T00:13:04;9.05;;;6.18;;
50851;SDS011;43953;45.508;-122.806;2022-11-20T00:13:36;7.75;;;5.60;;
50851;SDS011;43953;45.508;-122.806;2022-11-20T00:14:08;8.18;;;6.05;;
50851;SDS011;43953;45.508;-122.806;2022-11-20T00:14:41;8.10;;;6.13;;
50851;SDS011;43953;45.508;-122.806;2022-11-20T00:15:13;8.68;;;6.40;;
50851;SDS011;43953;45.508;-122.806;2022-11-20T00:15:44;8.32;;;6.35;;
50851;SDS011;43953;45.508;-122.806;2022-11-20T00:16:17;8.57;;;6.40;;
50851;SDS011;43953;45.508;-122.806;2022-11-20T00:16:51;8.18;;;6.40;;
50851;SDS011;43953;45.508;-122.806;2022-11-20T00:17:22;9.02;;;6.45;;
50851;SDS011;43953;45.508;-122.806;2022-11-20T00:17:54;9.57;;;6.28;;
50851;SDS011;43953;45.508;-122.806;2022-11-20T00:18:26;10.00;;;6.22;;
50851;SDS011;43953;45.508;-122.806;2022-11-20T00:18:59;7.72;;;5.78;;
50851;SDS011;43953;45.508;-122.806;2022-11-20T00:19:31;9.23;;;6.25;;
50851;SDS011;43953;45.508;-122.806;2022-11-20T00:20:02;8.00;;;6.25;;
50851;SDS011;43953;45.508;-122.806;2022-11-20T00:20:34;9.07;;;6.53;;
50851;SDS011;43953;45.508;-122.806;2022-11-20T00:21:09;7.97;;;5.85;;
50851;SDS011;43953;45.508;-122.806;2022-11-20T00:21:42;7.68;;;6.00;;
50851;SDS011;43953;45.508;-122.806;2022-11-20T00:22:14;9.20;;;6.45;;
50851;SDS011;43953;45.508;-122.806;2022-11-20T00:22:46;8.25;;;5.85;;
50851;SDS011;43953;45.508;-122.806;2022-11-20T00:23:18;7.72;;;6.10;;
50851;SDS011;43953;45.508;-122.806;2022-11-20T00:23:51;10.73;;;6.72;;
50851;SDS011;43953;45.508;-122.806;2022-11-20T00:24:24;9.80;;;6.10;;
50851;SDS011;43953;45.508;-122.806;2022-11-20T00:24:56;9.32;;;6.70;;
50851;SDS011;43953;45.508;-122.806;2022-11-20T00:25:28;7.68;;;6.10;;
50851;SDS011;43953;45.508;-122.806;2022-11-20T00:26:03;9.90;;;6.25;;
50851;SDS011;43953;45.508;-122.806;2022-11-20T00:26:37;7.95;;;5.90;;
50851;SDS011;43953;45.508;-122.806;2022-11-20T00:27:09;9.80;;;6.95;;
50851;SDS011;43953;45.508;-122.806;2022-11-20T00:27:40;11.50;;;6.65;;
50851;SDS011;43953;45.508;-122.806;2022-11-20T00:28:12;7.75;;;6.20;;
50851;SDS011;43953;45.508;-122.806;2022-11-20T00:28:48;8.40;;;6.38;;
50851;SDS011;43953;45.508;-122.806;2022-11-20T00:29:21;7.55;;;5.80;;
50851;SDS011;43953;45.508;-122.806;2022-11-20T00:29:53;8.52;;;6.00;;
50851;SDS011;43953;45.508;-122.806;2022-11-20T00:30:25;10.75;;;6.53;;
50851;SDS011;43953;45.508;-122.806;2022-11-20T00:31:03;8.23;;;6.15;;
50851;SDS011;43953;45.508;-122.806;2022-11-20T00:31:40;8.77;;;5.97;;
50851;SDS011;43953;45.508;-122.806;2022-11-20T00:32:11;8.80;;;6.32;;
50851;SDS011;43953;45.508;-122.806;2022-11-20T00:32:43;9.23;;;6.15;;
50851;SDS011;43953;45.508;-122.806;2022-11-20T00:33:15;8.00;;;5.97;;
50851;SDS011;43953;45.508;-122.806;2022-11-20T00:33:47;8.23;;;5.95;;
50851;SDS011;43953;45.508;-122.806;2022-11-20T00:34:19;8.80;;;6.00;;
50851;SDS011;43953;45.508;-122.806;2022-11-20T00:34:50;8.90;;;6.10;;
50851;SDS011;43953;45.508;-122.806;2022-11-20T00:35:22;7.78;;;5.65;;
50851;SDS011;43953;45.508;-122.806;2022-11-20T00:35:58;8.90;;;6.22;;
50851;SDS011;43953;45.508;-122.806;2022-11-20T00:36:34;7.75;;;6.22;;
50851;SDS011;43953;45.508;-122.806;2022-11-20T00:37:06;9.20;;;5.82;;
50851;SDS011;43953;45.508;-122.806;2022-11-20T00:37:38;8.93;;;6.43;;
50851;SDS011;43953;45.508;-122.806;2022-11-20T00:38:09;6.97;;;5.72;;
50851;SDS011;43953;45.508;-122.806;2022-11-20T00:38:41;8.90;;;6.32;;
50851;SDS011;43953;45.508;-122.806;2022-11-20T00:39:13;9.63;;;6.47;;
50851;SDS011;43953;45.508;-122.806;2022-11-20T00:39:45;8.38;;;6.22;;
50851;SDS011;43953;45.508;-122.806;2022-11-20T00:40:17;7.75;;;5.65;;
50851;SDS011;43953;45.508;-122.806;2022-11-20T00:40:54;8.52;;;6.03;;
50851;SDS011;43953;45.508;-122.806;2022-11-20T00:41:27;7.65;;;6.40;;
50851;SDS011;43953;45.508;-122.806;2022-11-20T00:42:00;9.13;;;6.25;;
50851;SDS011;43953;45.508;-122.806;2022-11-20T00:42:32;9.05;;;6.43;;
50851;SDS011;43953;45.508;-122.806;2022-11-20T00:43:04;8.32;;;5.72;;
50851;SDS011;43953;45.508;-122.806;2022-11-20T00:43:36;8.80;;;6.38;;
50851;SDS011;43953;45.508;-122.806;2022-11-20T00:44:08;8.57;;;6.53;;
50851;SDS011;43953;45.508;-122.806;2022-11-20T00:44:40;9.52;;;6.80;;
50851;SDS011;43953;45.508;-122.806;2022-11-20T00:45:12;7.32;;;5.93;;
50851;SDS011;43953;45.508;-122.806;2022-11-20T00:45:44;10.93;;;6.72;;
50851;SDS011;43953;45.508;-122.806;2022-11-20T00:46:16;9.40;;;6.70;;
50851;SDS011;43953;45.508;-122.806;2022-11-20T00:46:49;8.27;;;6.20;;
50851;SDS011;43953;45.508;-122.806;2022-11-20T00:47:21;8.88;;;6.85;;
50851;SDS011;43953;45.508;-122.806;2022-11-20T00:47:53;9.18;;;6.18;;
50851;SDS011;43953;45.508;-122.806;2022-11-20T00:48:25;8.13;;;5.97;;
50851;SDS011;43953;45.508;-122.806;2022-11-20T00:48:57;8.45;;;6.72;;
50851;SDS011;43953;45.508;-122.806;2022-11-20T00:49:29;8.13;;;5.93;;
50851;SDS011;43953;45.508;-122.806;2022-11-20T00:50:00;9.10;;;6.30;;
50851;SDS011;43953;45.508;-122.806;2022-11-20T00:50:32;8.38;;;6.43;;
50851;SDS011;43953;45.508;-122.806;2022-11-20T00:51:04;9.07;;;6.30;;
50851;SDS011;43953;45.508;-122.806;2022-11-20T00:51:36;8.85;;;6.07;;
50851;SDS011;43953;45.508;-122.806;2022-11-20T00:52:08;9.00;;;6.25;;
50851;SDS011;43953;45.508;-122.806;2022-11-20T00:52:40;10.02;;;6.65;;
50851;SDS011;43953;45.508;-122.806;2022-11-20T00:53:12;9.63;;;6.93;;
50851;SDS011;43953;45.508;-122.806;2022-11-20T00:53:44;8.70;;;6.28;;
50851;SDS011;43953;45.508;-122.806;2022-11-20T00:54:16;8.90;;;6.63;;
50851;SDS011;43953;45.508;-122.806;2022-11-20T00:54:48;9.27;;;6.43;;
50851;SDS011;43953;45.508;-122.806;2022-11-20T00:55:19;8.73;;;5.90;;
50851;SDS011;43953;45.508;-122.806;2022-11-20T00:55:58;8.05;;;6.40;;
50851;SDS011;43953;45.508;-122.806;2022-11-20T00:57:03;7.45;;;5.85;;
50851;SDS011;43953;45.508;-122.806;2022-11-20T00:57:34;8.05;;;6.10;;
50851;SDS011;43953;45.508;-122.806;2022-11-20T00:58:06;9.15;;;6.22;;
50851;SDS011;43953;45.508;-122.806;2022-11-20T00:58:38;8.55;;;6.13;;
50851;SDS011;43953;45.508;-122.806;2022-11-20T00:59:12;9.40;;;6.35;;
50851;SDS011;43953;45.508;-122.806;2022-11-20T00:59:44;10.25;;;6.25;;
50851;SDS011;43953;45.508;-122.806;2022-11-20T01:00:15;8.20;;;6.18;;
50851;SDS011;43953;45.508;-122.806;2022-11-20T01:00:47;10.70;;;6.82;;
50851;SDS011;43953;45.508;-122.806;2022-11-20T01:01:23;7.85;;;6.38;;
50851;SDS011;43953;45.508;-122.806;2022-11-20T01:01:56;8.88;;;6.07;;
50851;SDS011;43953;45.508;-122.806;2022-11-20T01:02:28;8.35;;;6.18;;
50851;SDS011;43953;45.508;-122.806;2022-11-20T01:02:59;8.60;;;6.35;;
50851;SDS011;43953;45.508;-122.806;2022-11-20T01:03:32;9.85;;;6.65;;
50851;SDS011;43953;45.508;-122.806;2022-11-20T01:04:04;7.72;;;6.07;;
50851;SDS011;43953;45.508;-122.806;2022-11-20T01:04:36;9.13;;;6.10;;
50851;SDS011;43953;45.508;-122.806;2022-11-20T01:05:08;9.85;;;6.10;;
50851;SDS011;43953;45.508;-122.806;2022-11-20T01:05:39;8.48;;;6.00;;
50851;SDS011;43953;45.508;-122.806;2022-11-20T01:06:12;9.10;;;6.75;;
50851;SDS011;43953;45.508;-122.806;2022-11-20T01:06:45;10.93;;;6.72;;
50851;SDS011;43953;45.508;-122.806;2022-11-20T01:07:17;9.88;;;5.97;;
50851;SDS011;43953;45.508;-122.806;2022-11-20T01:07:48;7.93;;;6.03;;
50851;SDS011;43953;45.508;-122.806;2022-11-20T01:08:20;8.35;;;6.50;;
50851;SDS011;43953;45.508;-122.806;2022-11-20T01:08:53;9.35;;;6.47;;
50851;SDS011;43953;45.508;-122.806;2022-11-20T01:09:26;8.90;;;6.32;;
50851;SDS011;43953;45.508;-122.806;2022-11-20T01:09:58;9.75;;;6.22;;
50851;SDS011;43953;45.508;-122.806;2022-11-20T01:10:30;8.23;;;6.53;;
50851;SDS011;43953;45.508;-122.806;2022-11-20T01:11:03;7.93;;;6.07;;
50851;SDS011;43953;45.508;-122.806;2022-11-20T01:11:41;8.20;;;6.05;;
50851;SDS011;43953;45.508;-122.806;2022-11-20T01:12:14;9.50;;;6.47;;
50851;SDS011;43953;45.508;-122.806;2022-11-20T01:12:46;10.98;;;7.15;;
50851;SDS011;43953;45.508;-122.806;2022-11-20T01:13:37;8.23;;;6.15;;
50851;SDS011;43953;45.508;-122.806;2022-11-20T01:14:11;9.00;;;6.50;;
50851;SDS011;43953;45.508;-122.806;2022-11-20T01:14:46;8.35;;;6.35;;
50851;SDS011;43953;45.508;-122.806;2022-11-20T01:15:18;7.55;;;6.13;;
50851;SDS011;43953;45.508;-122.806;2022-11-20T01:15:50;8.93;;;6.57;;
50851;SDS011;43953;45.508;-122.806;2022-11-20T01:16:26;8.25;;;6.43;;
50851;SDS011;43953;45.508;-122.806;2022-11-20T01:16:59;8.35;;;6.38;;
50851;SDS011;43953;45.508;-122.806;2022-11-20T01:17:31;9.95;;;6.70;;
50851;SDS011;43953;45.508;-122.806;2022-11-20T01:18:03;8.52;;;6.50;;
50851;SDS011;43953;45.508;-122.806;2022-11-20T01:18:36;8.15;;;6.30;;
50851;SDS011;43953;45.508;-122.806;2022-11-20T01:19:11;8.65;;;6.40;;
50851;SDS011;43953;45.508;-122.806;2022-11-20T01:19:44;10.95;;;6.97;;
50851;SDS011;43953;45.508;-122.806;2022-11-20T01:20:19;8.63;;;6.72;;
50851;SDS011;43953;45.508;-122.806;2022-11-20T01:20:51;9.82;;;6.88;;
50851;SDS011;43953;45.508;-122.806;2022-11-20T01:21:24;8.05;;;6.10;;
50851;SDS011;43953;45.508;-122.806;2022-11-20T01:21:58;10.43;;;6.65;;
50851;SDS011;43953;45.508;-122.806;2022-11-20T01:22:30;9.48;;;6.70;;
50851;SDS011;43953;45.508;-122.806;2022-11-20T01:23:04;8.55;;;6.35;;
50851;SDS011;43953;45.508;-122.806;2022-11-20T01:23:37;8.05;;;6.03;;
50851;SDS011;43953;45.508;-122.806;2022-11-20T01:24:12;9.13;;;6.72;;
50851;SDS011;43953;45.508;-122.806;2022-11-20T01:24:46;9.10;;;6.70;;
50851;SDS011;43953;45.508;-122.806;2022-11-20T01:25:18;9.25;;;6.70;;
50851;SDS011;43953;45.508;-122.806;2022-11-20T01:25:49;8.25;;;6.60;;
50851;SDS011;43953;45.508;-122.806;2022-11-20T01:26:23;9.02;;;6.65;;
50851;SDS011;43953;45.508;-122.806;2022-11-20T01:26:56;8.57;;;6.65;;
50851;SDS011;43953;45.508;-122.806;2022-11-20T01:27:28;8.32;;;6.35;;
50851;SDS011;43953;45.508;-122.806;2022-11-20T01:28:00;9.60;;;6.68;;
50851;SDS011;43953;45.508;-122.806;2022-11-20T01:28:32;9.15;;;6.68;;
50851;SDS011;43953;45.508;-122.806;2022-11-20T01:29:05;10.57;;;7.03;;
50851;SDS011;43953;45.508;-122.806;2022-11-20T01:29:38;8.55;;;6.30;;
50851;SDS011;43953;45.508;-122.806;2022-11-20T01:30:09;8.02;;;6.10;;
50851;SDS011;43953;45.508;-122.806;2022-11-20T01:30:42;8.63;;;6.43;;
50851;SDS011;43953;45.508;-122.806;2022-11-20T01:31:47;8.80;;;6.53;;
50851;SDS011;43953;45.508;-122.806;2022-11-20T01:32:12;8.98;;;6.53;;
50851;SDS011;43953;45.508;-122.806;2022-11-20T01:32:44;9.55;;;6.30;;
50851;SDS011;43953;45.508;-122.806;2022-11-20T01:33:15;8.50;;;6.00;;
50851;SDS011;43953;45.508;-122.806;2022-11-20T01:33:48;9.55;;;6.78;;
50851;SDS011;43953;45.508;-122.806;2022-11-20T01:34:21;8.32;;;6.28;;
50851;SDS011;43953;45.508;-122.806;2022-11-20T01:34:54;8.27;;;6.13;;
50851;SDS011;43953;45.508;-122.806;2022-11-20T01:35:25;9.20;;;6.53;;
50851;SDS011;43953;45.508;-122.806;2022-11-20T01:36:02;8.43;;;6.45;;
50851;SDS011;43953;45.508;-122.806;2022-11-20T01:36:36;8.73;;;6.68;;
50851;SDS011;43953;45.508;-122.806;2022-11-20T01:37:09;8.68;;;6.47;;
50851;SDS011;43953;45.508;-122.806;2022-11-20T01:37:41;11.30;;;6.32;;
50851;SDS011;43953;45.508;-122.806;2022-11-20T01:38:12;9.43;;;6.90;;
50851;SDS011;43953;45.508;-122.806;2022-11-20T01:38:45;8.82;;;6.63;;
50851;SDS011;43953;45.508;-122.806;2022-11-20T01:39:21;9.23;;;6.88;;
50851;SDS011;43953;45.508;-122.806;2022-11-20T01:39:55;9.07;;;6.65;;
50851;SDS011;43953;45.508;-122.806;2022-11-20T01:40:27;9.52;;;6.68;;
50851;SDS011;43953;45.508;-122.806;2022-11-20T01:40:58;7.20;;;6.03;;
50851;SDS011;43953;45.508;-122.806;2022-11-20T01:41:31;7.57;;;6.15;;
50851;SDS011;43953;45.508;-122.806;2022-11-20T01:42:22;8.77;;;6.68;;
50851;SDS011;43953;45.508;-122.806;2022-11-20T01:43:18;9.27;;;7.03;;
50851;SDS011;43953;45.508;-122.806;2022-11-20T01:43:53;9.70;;;6.43;;
50851;SDS011;43953;45.508;-122.806;2022-11-20T01:46:24;9.88;;;6.60;;
50851;SDS011;43953;45.508;-122.806;2022-11-20T01:46:57;8.32;;;6.30;;
50851;SDS011;43953;45.508;-122.806;2022-11-20T01:48:07;8.02;;;6.32;;
50851;SDS011;43953;45.508;-122.806;2022-11-20T01:48:42;9.50;;;6.55;;
50851;SDS011;43953;45.508;-122.806;2022-11-20T01:49:56;9.07;;;6.30;;
50851;SDS011;43953;45.508;-122.806;2022-11-20T01:50:31;8.73;;;6.95;;
50851;SDS011;43953;45.508;-122.806;2022-11-20T01:51:05;10.27;;;6.63;;
50851;SDS011;43953;45.508;-122.806;2022-11-20T01:51:45;9.48;;;6.70;;
50851;SDS011;43953;45.508;-122.806;2022-11-20T01:52:30;8.38;;;6.32;;
50851;SDS011;43953;45.508;-122.806;2022-11-20T01:53:06;8.95;;;6.40;;
50851;SDS011;43953;45.508;-122.806;2022-11-20T01:53:41;10.55;;;7.03;;
50851;SDS011;43953;45.508;-122.806;2022-11-20T01:54:18;11.18;;;7.20;;
50851;SDS011;43953;45.508;-122.806;2022-11-20T01:54:56;9.43;;;6.38;;
50851;SDS011;43953;45.508;-122.806;2022-11-20T01:55:37;9.82;;;6.60;;
50851;SDS011;43953;45.508;-122.806;2022-11-20T01:56:14;9.85;;;6.95;;
50851;SDS011;43953;45.508;-122.806;2022-11-20T01:56:47;8.57;;;6.78;;
50851;SDS011;43953;45.508;-122.806;2022-11-20T01:57:22;10.35;;;6.70;;
50851;SDS011;43953;45.508;-122.806;2022-11-20T01:57:58;8.57;;;6.20;;
50851;SDS011;43953;45.508;-122.806;2022-11-20T01:58:33;10.38;;;7.22;;
50851;SDS011;43953;45.508;-122.806;2022-11-20T01:59:08;10.25;;;6.82;;
50851;SDS011;43953;45.508;-122.806;2022-11-20T01:59:44;9.27;;;7.13;;
50851;SDS011;43953;45.508;-122.806;2022-11-20T02:00:25;9.27;;;6.47;;
50851;SDS011;43953;45.508;-122.806;2022-11-20T02:00:56;9.98;;;6.70;;
50851;SDS011;43953;45.508;-122.806;2022-11-20T02:01:28;11.77;;;7.63;;
50851;SDS011;43953;45.508;-122.806;2022-11-20T02:02:00;8.73;;;6.28;;
50851;SDS011;43953;45.508;-122.806;2022-11-20T02:02:32;8.27;;;6.72;;
50851;SDS011;43953;45.508;-122.806;2022-11-20T02:03:09;9.70;;;6.40;;
50851;SDS011;43953;45.508;-122.806;2022-11-20T02:03:46;10.52;;;6.95;;
50851;SDS011;43953;45.508;-122.806;2022-11-20T02:04:20;8.55;;;6.35;;
50851;SDS011;43953;45.508;-122.806;2022-11-20T02:04:54;10.10;;;7.03;;
50851;SDS011;43953;45.508;-122.806;2022-11-20T02:07:25;9.70;;;7.07;;
50851;SDS011;43953;45.508;-122.806;2022-11-20T02:07:57;11.07;;;7.13;;
50851;SDS011;43953;45.508;-122.806;2022-11-20T02:08:30;10.85;;;7.57;;
50851;SDS011;43953;45.508;-122.806;2022-11-20T02:09:03;9.43;;;7.13;;
50851;SDS011;43953;45.508;-122.806;2022-11-20T02:09:35;10.80;;;7.43;;
50851;SDS011;43953;45.508;-122.806;2022-11-20T02:10:07;9.27;;;6.90;;
50851;SDS011;43953;45.508;-122.806;2022-11-20T02:10:39;8.48;;;6.45;;
50851;SDS011;43953;45.508;-122.806;2022-11-20T02:11:11;10.00;;;7.10;;
50851;SDS011;43953;45.508;-122.806;2022-11-20T02:11:43;9.05;;;6.88;;
50851;SDS011;43953;45.508;-122.806;2022-11-20T02:12:15;10.32;;;7.28;;
50851;SDS011;43953;45.508;-122.806;2022-11-20T02:13:05;11.52;;;7.35;;
50851;SDS011;43953;45.508;-122.806;2022-11-20T02:13:55;9.40;;;6.93;;
50851;SDS011;43953;45.508;-122.806;2022-11-20T02:14:26;10.88;;;6.97;;
50851;SDS011;43953;45.508;-122.806;2022-11-20T02:14:58;9.68;;;7.25;;
50851;SDS011;43953;45.508;-122.806;2022-11-20T02:15:32;10.15;;;7.07;;
50851;SDS011;43953;45.508;-122.806;2022-11-20T02:16:04;10.02;;;7.15;;
50851;SDS011;43953;45.508;-122.806;2022-11-20T02:16:41;11.15;;;7.25;;
50851;SDS011;43953;45.508;-122.806;2022-11-20T02:17:16;10.20;;;7.57;;
50851;SDS011;43953;45.508;-122.806;2022-11-20T02:17:48;10.80;;;7.30;;
50851;SDS011;43953;45.508;-122.806;2022-11-20T02:18:20;9.73;;;7.18;;
50851;SDS011;43953;45.508;-122.806;2022-11-20T02:18:53;9.32;;;7.35;;
50851;SDS011;43953;45.508;-122.806;2022-11-20T02:19:30;9.77;;;7.05;;
50851;SDS011;43953;45.508;-122.806;2022-11-20T02:20:03;11.35;;;7.35;;
50851;SDS011;43953;45.508;-122.806;2022-11-20T02:20:35;10.32;;;7.38;;
50851;SDS011;43953;45.508;-122.806;2022-11-20T02:21:13;8.77;;;6.68;;
50851;SDS011;43953;45.508;-122.806;2022-11-20T02:22:34;10.38;;;6.65;;
50851;SDS011;43953;45.508;-122.806;2022-11-20T02:23:31;9.90;;;6.63;;
50851;SDS011;43953;45.508;-122.806;2022-11-20T02:24:09;9.32;;;6.40;;
50851;SDS011;43953;45.508;-122.806;2022-11-20T02:24:46;9.25;;;6.57;;
50851;SDS011;43953;45.508;-122.806;2022-11-20T02:25:21;10.68;;;6.95;;
50851;SDS011;43953;45.508;-122.806;2022-11-20T02:25:56;8.75;;;6.35;;
50851;SDS011;43953;45.508;-122.806;2022-11-20T02:26:34;11.27;;;7.18;;
50851;SDS011;43953;45.508;-122.806;2022-11-20T02:27:12;9.07;;;7.40;;
50851;SDS011;43953;45.508;-122.806;2022-11-20T02:27:46;8.90;;;6.75;;
50851;SDS011;43953;45.508;-122.806;2022-11-20T02:28:18;10.88;;;7.55;;
50851;SDS011;43953;45.508;-122.806;2022-11-20T02:28:50;9.90;;;7.07;;
50851;SDS011;43953;45.508;-122.806;2022-11-20T02:29:37;10.10;;;7.43;;
50851;SDS011;43953;45.508;-122.806;2022-11-20T02:30:15;9.48;;;7.40;;
50851;SDS011;43953;45.508;-122.806;2022-11-20T02:30:47;10.93;;;6.95;;
50851;SDS011;43953;45.508;-122.806;2022-11-20T02:31:19;10.40;;;7.68;;
50851;SDS011;43953;45.508;-122.806;2022-11-20T02:31:51;9.57;;;7.35;;
50851;SDS011;43953;45.508;-122.806;2022-11-20T02:32:29;8.77;;;6.88;;
50851;SDS011;43953;45.508;-122.806;2022-11-20T02:33:02;9.95;;;6.97;;
50851;SDS011;43953;45.508;-122.806;2022-11-20T02:33:34;8.45;;;6.93;;
50851;SDS011;43953;45.508;-122.806;2022-11-20T02:34:06;7.97;;;6.50;;
50851;SDS011;43953;45.508;-122.806;2022-11-20T02:34:40;10.60;;;7.25;;
50851;SDS011;43953;45.508;-122.806;2022-11-20T02:35:50;8.82;;;6.85;;
50851;SDS011;43953;45.508;-122.806;2022-11-20T02:36:22;11.18;;;7.45;;
50851;SDS011;43953;45.508;-122.806;2022-11-20T02:36:57;10.30;;;6.97;;
50851;SDS011;43953;45.508;-122.806;2022-11-20T02:37:32;10.40;;;7.60;;
50851;SDS011;43953;45.508;-122.806;2022-11-20T02:38:07;10.15;;;7.05;;
50851;SDS011;43953;45.508;-122.806;2022-11-20T02:38:39;9.35;;;7.03;;
50851;SDS011;43953;45.508;-122.806;2022-11-20T02:39:12;8.55;;;6.72;;
50851;SDS011;43953;45.508;-122.806;2022-11-20T02:39:47;10.27;;;7.07;;
50851;SDS011;43953;45.508;-122.806;2022-11-20T02:40:22;9.13;;;6.68;;
50851;SDS011;43953;45.508;-122.806;2022-11-20T02:40:54;10.10;;;7.60;;
50851;SDS011;43953;45.508;-122.806;2022-11-20T02:41:32;9.80;;;7.55;;
50851;SDS011;43953;45.508;-122.806;2022-11-20T02:42:05;9.95;;;7.30;;
50851;SDS011;43953;45.508;-122.806;2022-11-20T02:42:37;8.18;;;7.13;;
50851;SDS011;43953;45.508;-122.806;2022-11-20T02:43:09;9.85;;;7.60;;
50851;SDS011;43953;45.508;-122.806;2022-11-20T02:43:41;9.93;;;6.50;;
50851;SDS011;43953;45.508;-122.806;2022-11-20T02:44:13;9.27;;;6.68;;
50851;SDS011;43953;45.508;-122.806;2022-11-20T02:44:44;8.88;;;6.82;;
50851;SDS011;43953;45.508;-122.806;2022-11-20T02:45:16;9.25;;;6.55;;
50851;SDS011;43953;45.508;-122.806;2022-11-20T02:45:48;10.00;;;6.65;;
50851;SDS011;43953;45.508;-122.806;2022-11-20T02:46:20;10.73;;;6.72;;
50851;SDS011;43953;45.508;-122.806;2022-11-20T02:46:51;11.45;;;7.20;;
50851;SDS011;43953;45.508;-122.806;2022-11-20T02:47:23;9.95;;;7.05;;
50851;SDS011;43953;45.508;-122.806;2022-11-20T02:47:55;8.55;;;6.68;;
50851;SDS011;43953;45.508;-122.806;2022-11-20T02:48:27;8.27;;;6.45;;
50851;SDS011;43953;45.508;-122.806;2022-11-20T02:49:00;9.82;;;7.15;;
50851;SDS011;43953;45.508;-122.806;2022-11-20T02:49:33;9.23;;;6.82;;
50851;SDS011;43953;45.508;-122.806;2022-11-20T02:50:05;9.07;;;6.88;;
50851;SDS011;43953;45.508;-122.806;2022-11-20T02:50:38;10.02;;;7.03;;
50851;SDS011;43953;45.508;-122.806;2022-11-20T02:51:10;10.25;;;6.80;;
50851;SDS011;43953;45.508;-122.806;2022-11-20T02:51:42;9.68;;;6.97;;
50851;SDS011;43953;45.508;-122.806;2022-11-20T02:52:14;9.57;;;7.15;;
50851;SDS011;43953;45.508;-122.806;2022-11-20T02:52:46;8.52;;;6.97;;
50851;SDS011;43953;45.508;-122.806;2022-11-20T02:53:18;9.18;;;7.55;;
50851;SDS011;43953;45.508;-122.806;2022-11-20T02:53:50;10.65;;;7.40;;
50851;SDS011;43953;45.508;-122.806;2022-11-20T02:54:22;9.90;;;7.30;;
50851;SDS011;43953;45.508;-122.806;2022-11-20T02:54:54;8.48;;;6.60;;
50851;SDS011;43953;45.508;-122.806;2022-11-20T02:55:26;8.75;;;7.28;;
50851;SDS011;43953;45.508;-122.806;2022-11-20T02:55:58;10.90;;;7.60;;
50851;SDS011;43953;45.508;-122.806;2022-11-20T02:56:30;9.20;;;6.93;;
50851;SDS011;43953;45.508;-122.806;2022-11-20T02:57:02;10.20;;;7.15;;
50851;SDS011;43953;45.508;-122.806;2022-11-20T02:57:34;10.52;;;7.28;;
50851;SDS011;43953;45.508;-122.806;2022-11-20T02:58:06;8.02;;;6.75;;
50851;SDS011;43953;45.508;-122.806;2022-11-20T02:58:38;9.35;;;7.15;;
50851;SDS011;43953;45.508;-122.806;2022-11-20T02:59:09;10.15;;;7.15;;
50851;SDS011;43953;45.508;-122.806;2022-11-20T02:59:41;10.55;;;7.78;;
50851;SDS011;43953;45.508;-122.806;2022-11-20T03:00:13;10.18;;;7.50;;
50851;SDS011;43953;45.508;-122.806;2022-11-20T03:00:45;11.15;;;7.28;;
50851;SDS011;43953;45.508;-122.806;2022-11-20T03:01:17;9.60;;;7.25;;
50851;SDS011;43953;45.508;-122.806;2022-11-20T03:01:48;10.27;;;7.15;;
50851;SDS011;43953;45.508;-122.806;2022-11-20T03:02:20;9.65;;;6.80;;
50851;SDS011;43953;45.508;-122.806;2022-11-20T03:02:52;9.95;;;7.50;;
50851;SDS011;43953;45.508;-122.806;2022-11-20T03:03:24;10.20;;;7.65;;
50851;SDS011;43953;45.508;-122.806;2022-11-20T03:03:55;10.05;;;7.05;;
50851;SDS011;43953;45.508;-122.806;2022-11-20T03:04:27;10.38;;;7.50;;
50851;SDS011;43953;45.508;-122.806;2022-11-20T03:04:59;11.27;;;7.57;;
50851;SDS011;43953;45.508;-122.806;2022-11-20T03:05:31;10.65;;;7.38;;
50851;SDS011;43953;45.508;-122.806;2022-11-20T03:06:03;9.30;;;6.80;;
50851;SDS011;43953;45.508;-122.806;2022-11-20T03:06:34;9.60;;;7.28;;
50851;SDS011;43953;45.508;-122.806;2022-11-20T03:07:07;9.98;;;7.10;;
50851;SDS011;43953;45.508;-122.806;2022-11-20T03:07:40;10.57;;;7.63;;
50851;SDS011;43953;45.508;-122.806;2022-11-20T03:08:12;8.38;;;6.47;;
50851;SDS011;43953;45.508;-122.806;2022-11-20T03:08:43;12.13;;;8.10;;
50851;SDS011;43953;45.508;-122.806;2022-11-20T03:09:15;9.27;;;7.25;;
50851;SDS011;43953;45.508;-122.806;2022-11-20T03:09:47;9.80;;;7.03;;
50851;SDS011;43953;45.508;-122.806;2022-11-20T03:10:19;9.70;;;7.07;;
50851;SDS011;43953;45.508;-122.806;2022-11-20T03:10:50;9.23;;;7.38;;
50851;SDS011;43953;45.508;-122.806;2022-11-20T03:11:22;9.02;;;6.95;;
50851;SDS011;43953;45.508;-122.806;2022-11-20T03:11:54;9.82;;;6.97;;
50851;SDS011;43953;45.508;-122.806;2022-11-20T03:12:26;10.60;;;7.90;;
50851;SDS011;43953;45.508;-122.806;2022-11-20T03:12:58;10.98;;;7.18;;
50851;SDS011;43953;45.508;-122.806;2022-11-20T03:13:30;10.43;;;7.55;;
50851;SDS011;43953;45.508;-122.806;2022-11-20T03:14:02;9.23;;;7.28;;
50851;SDS011;43953;45.508;-122.806;2022-11-20T03:14:35;8.88;;;7.03;;
50851;SDS011;43953;45.508;-122.806;2022-11-20T03:15:07;11.48;;;7.18;;
50851;SDS011;43953;45.508;-122.806;2022-11-20T03:15:39;8.88;;;6.55;;
50851;SDS011;43953;45.508;-122.806;2022-11-20T03:16:18;9.55;;;6.93;;
50851;SDS011;43953;45.508;-122.806;2022-11-20T03:16:51;8.55;;;7.20;;
50851;SDS011;43953;45.508;-122.806;2022-11-20T03:17:23;10.10;;;7.28;;
50851;SDS011;43953;45.508;-122.806;2022-11-20T03:17:55;10.95;;;7.10;;
50851;SDS011;43953;45.508;-122.806;2022-11-20T03:18:27;8.23;;;6.90;;
50851;SDS011;43953;45.508;-122.806;2022-11-20T03:18:59;10.65;;;6.88;;